Time;durP1;ratioP1;P1;durP2;ratioP2;P2;SDS_P1;SDS_P2;PMS_P1;PMS_P2;Temp;Humidity;BMP_temperature;BMP_pressure;BME280_temperature;BME280_humidity;BME280_pressure;Samples;Min_cycle;Max_cycle;Signal;HPM_P1;HPM_P2
2021/07/07 00:02:02;;;;;;;19.25;3.92;;;;;;;;;;5060057;28;20232;-78
2021/07/07 00:04:28;;;;;;;14.48;3.25;;;;;;;;;;5055046;28;20033;-78
2021/07/07 00:06:54;;;;;;;16.27;4.70;;;;;;;;;;5062016;28;20045;-78
2021/07/07 00:09:20;;;;;;;18.15;3.92;;;;;;;;;;5060633;28;20085;-77
2021/07/07 00:11:47;;;;;;;13.77;3.28;;;;;;;;;;5062369;28;20145;-78
2021/07/07 00:14:13;;;;;;;18.92;3.75;;;;;;;;;;5066017;28;20045;-77
2021/07/07 00:16:39;;;;;;;19.77;4.15;;;;;;;;;;5066295;28;20045;-78
2021/07/07 00:19:06;;;;;;;17.88;3.83;;;;;;;;;;5047356;28;20049;-78
2021/07/07 00:21:32;;;;;;;18.90;5.18;;;;;;;;;;5064537;28;20091;-77
2021/07/07 00:23:58;;;;;;;13.02;3.38;;;;;;;;;;5060987;28;20045;-78
2021/07/07 00:26:25;;;;;;;16.60;4.50;;;;;;;;;;5062310;28;20056;-78
2021/07/07 00:28:51;;;;;;;18.08;4.68;;;;;;;;;;5061691;28;20797;-77
2021/07/07 00:31:18;;;;;;;17.08;4.07;;;;;;;;;;5065042;28;20371;-78
2021/07/07 00:33:44;;;;;;;14.93;3.85;;;;;;;;;;5064095;28;20046;-78
2021/07/07 00:36:10;;;;;;;12.55;4.10;;;;;;;;;;5061911;28;20063;-78
2021/07/07 00:38:36;;;;;;;13.32;3.55;;;;;;;;;;5065572;28;20040;-78
2021/07/07 00:41:02;;;;;;;17.55;3.28;;;;;;;;;;5061811;28;20044;-78
2021/07/07 00:43:29;;;;;;;11.75;2.95;;;;;;;;;;5066672;28;20028;-78
2021/07/07 00:45:55;;;;;;;16.50;3.70;;;;;;;;;;5064881;28;20469;-78
2021/07/07 00:48:21;;;;;;;16.38;3.60;;;;;;;;;;5064503;28;20739;-78
2021/07/07 00:50:49;;;;;;;20.45;4.47;;;;;;;;;;5064486;28;20072;-78
2021/07/07 00:53:15;;;;;;;15.02;3.83;;;;;;;;;;5058543;28;20132;-78
2021/07/07 00:55:42;;;;;;;25.80;4.20;;;;;;;;;;5043802;28;20064;-78
2021/07/07 00:58:10;;;;;;;20.90;4.65;;;;;;;;;;5065502;28;20465;-78
2021/07/07 01:00:36;;;;;;;9.80;3.58;;;;;;;;;;5057576;28;21097;-78
2021/07/07 01:03:02;;;;;;;14.02;4.55;;;;;;;;;;5064511;28;20036;-78
2021/07/07 01:05:29;;;;;;;17.05;3.55;;;;;;;;;;5064795;28;20053;-78
2021/07/07 01:07:55;;;;;;;13.55;4.25;;;;;;;;;;5063879;28;20068;-78
2021/07/07 01:10:21;;;;;;;12.75;4.18;;;;;;;;;;5063588;28;20081;-78
2021/07/07 01:12:48;;;;;;;16.48;4.30;;;;;;;;;;5062010;28;21638;-78
2021/07/07 01:15:15;;;;;;;10.98;3.35;;;;;;;;;;5063308;28;20041;-78
2021/07/07 01:17:42;;;;;;;15.75;4.00;;;;;;;;;;5060801;28;20067;-78
2021/07/07 01:20:10;;;;;;;12.35;3.78;;;;;;;;;;5045678;28;20098;-78
2021/07/07 01:22:37;;;;;;;13.55;3.97;;;;;;;;;;5067474;28;20060;-78
2021/07/07 01:25:04;;;;;;;14.75;4.30;;;;;;;;;;5065629;28;20148;-78
2021/07/07 01:27:30;;;;;;;20.65;4.05;;;;;;;;;;5061672;28;20443;-78
2021/07/07 01:29:57;;;;;;;14.38;4.25;;;;;;;;;;5054824;28;20068;-77
2021/07/07 01:32:23;;;;;;;11.45;4.07;;;;;;;;;;5058897;28;20140;-78
2021/07/07 01:34:50;;;;;;;11.98;3.72;;;;;;;;;;5061832;28;20045;-78
2021/07/07 01:37:17;;;;;;;18.50;5.20;;;;;;;;;;5062748;28;20045;-78
2021/07/07 01:39:43;;;;;;;11.40;3.60;;;;;;;;;;5062255;28;20100;-78
2021/07/07 01:42:09;;;;;;;12.85;3.85;;;;;;;;;;5064260;28;20135;-77
2021/07/07 01:44:36;;;;;;;16.55;5.07;;;;;;;;;;5059606;28;20028;-77
2021/07/07 01:47:03;;;;;;;12.25;3.90;;;;;;;;;;5063153;28;20033;-77
2021/07/07 01:49:30;;;;;;;15.35;4.10;;;;;;;;;;5062051;28;20033;-78
2021/07/07 01:51:56;;;;;;;10.45;4.47;;;;;;;;;;5063276;28;20138;-77
2021/07/07 01:54:22;;;;;;;12.88;4.38;;;;;;;;;;5066404;28;20330;-78
2021/07/07 01:56:49;;;;;;;18.40;4.78;;;;;;;;;;5063726;28;20044;-77
2021/07/07 01:59:15;;;;;;;11.00;4.00;;;;;;;;;;5068112;28;20133;-77
2021/07/07 02:01:42;;;;;;;11.50;4.18;;;;;;;;;;5067625;28;20447;-77
2021/07/07 02:04:08;;;;;;;14.23;3.85;;;;;;;;;;5063569;28;20044;-78
2021/07/07 02:06:35;;;;;;;10.02;4.07;;;;;;;;;;5044308;28;20472;-77
2021/07/07 02:09:01;;;;;;;12.80;4.63;;;;;;;;;;5061060;28;20045;-77
2021/07/07 02:11:28;;;;;;;15.15;3.97;;;;;;;;;;5062442;28;20052;-78
2021/07/07 02:13:54;;;;;;;14.50;4.18;;;;;;;;;;5057971;28;20059;-77
2021/07/07 02:16:20;;;;;;;16.08;4.60;;;;;;;;;;5060638;28;20040;-78
2021/07/07 02:18:46;;;;;;;11.95;5.03;;;;;;;;;;5057485;28;20040;-78
2021/07/07 02:21:13;;;;;;;10.05;4.55;;;;;;;;;;5055626;28;20128;-77
2021/07/07 02:23:39;;;;;;;18.38;5.35;;;;;;;;;;5060926;28;20049;-78
2021/07/07 02:26:05;;;;;;;10.93;4.57;;;;;;;;;;5062098;28;20106;-77
2021/07/07 02:28:31;;;;;;;15.50;5.10;;;;;;;;;;5062323;28;20067;-78
2021/07/07 02:30:58;;;;;;;15.15;5.93;;;;;;;;;;5062184;28;20447;-77
2021/07/07 02:33:26;;;;;;;14.40;4.60;;;;;;;;;;5056576;28;20045;-77
2021/07/07 02:35:52;;;;;;;14.82;5.00;;;;;;;;;;5060965;28;20078;-78
2021/07/07 02:38:20;;;;;;;12.40;4.53;;;;;;;;;;5055670;28;20357;-77
2021/07/07 02:40:46;;;;;;;14.23;5.35;;;;;;;;;;5060147;28;20067;-78
2021/07/07 02:43:13;;;;;;;14.10;4.95;;;;;;;;;;5064092;28;20044;-78
2021/07/07 02:45:40;;;;;;;14.10;4.55;;;;;;;;;;5057230;28;20048;-78
2021/07/07 02:48:06;;;;;;;12.82;4.20;;;;;;;;;;5058039;28;20476;-77
2021/07/07 02:50:34;;;;;;;18.33;5.07;;;;;;;;;;5062848;28;20088;-77
2021/07/07 02:53:00;;;;;;;10.75;4.13;;;;;;;;;;5040175;28;20078;-77
2021/07/07 02:55:26;;;;;;;15.40;4.40;;;;;;;;;;5045113;28;20059;-77
2021/07/07 02:57:59;;;;;;;10.90;4.20;;;;;;;;;;5062020;28;21826;-77
2021/07/07 03:00:30;;;;;;;11.98;4.82;;;;;;;;;;5044244;28;20400;-77
2021/07/07 03:02:58;;;;;;;12.95;4.80;;;;;;;;;;5059826;28;20047;-77
2021/07/07 03:05:24;;;;;;;14.50;4.40;;;;;;;;;;5059560;28;20550;-78
2021/07/07 03:07:50;;;;;;;11.85;4.70;;;;;;;;;;5060961;28;20117;-77
2021/07/07 03:10:17;;;;;;;14.60;5.05;;;;;;;;;;5059336;28;20048;-78
2021/07/07 03:12:43;;;;;;;9.68;4.70;;;;;;;;;;5062717;28;20083;-78
2021/07/07 03:15:09;;;;;;;13.13;4.70;;;;;;;;;;5063725;28;20459;-77
2021/07/07 03:17:35;;;;;;;11.85;4.45;;;;;;;;;;5067273;28;20119;-77
2021/07/07 03:20:02;;;;;;;10.40;4.43;;;;;;;;;;5066251;28;20048;-78
2021/07/07 03:22:28;;;;;;;16.00;4.57;;;;;;;;;;5063828;28;20044;-77
2021/07/07 03:24:54;;;;;;;15.60;5.60;;;;;;;;;;5061592;28;20049;-77
2021/07/07 03:27:20;;;;;;;16.48;4.70;;;;;;;;;;5060568;28;20503;-77
2021/07/07 03:29:47;;;;;;;14.88;5.05;;;;;;;;;;5061232;28;20040;-78
2021/07/07 03:32:13;;;;;;;12.63;4.65;;;;;;;;;;5061677;28;20162;-78
2021/07/07 03:34:40;;;;;;;12.38;5.00;;;;;;;;;;5056513;28;20059;-77
2021/07/07 03:37:06;;;;;;;10.73;4.38;;;;;;;;;;5043250;28;20115;-77
2021/07/07 03:39:32;;;;;;;19.92;5.18;;;;;;;;;;5055434;28;20093;-77
2021/07/07 03:41:58;;;;;;;12.15;4.50;;;;;;;;;;5059189;28;20110;-78
2021/07/07 03:44:24;;;;;;;13.40;4.88;;;;;;;;;;5068306;28;20052;-77
2021/07/07 03:46:51;;;;;;;14.93;4.25;;;;;;;;;;5069828;28;20045;-77
2021/07/07 03:49:17;;;;;;;13.00;4.50;;;;;;;;;;5068842;28;20518;-77
2021/07/07 03:51:43;;;;;;;10.77;4.47;;;;;;;;;;5067259;28;20049;-78
2021/07/07 03:54:09;;;;;;;10.40;4.45;;;;;;;;;;5066738;28;20044;-77
2021/07/07 03:56:35;;;;;;;13.07;5.00;;;;;;;;;;5065283;28;20075;-77
2021/07/07 03:59:01;;;;;;;13.45;4.32;;;;;;;;;;5067326;28;20074;-78
2021/07/07 04:01:28;;;;;;;10.35;4.63;;;;;;;;;;5065113;28;20041;-77
2021/07/07 04:03:54;;;;;;;15.65;4.47;;;;;;;;;;5065089;28;20047;-77
2021/07/07 04:06:21;;;;;;;9.43;4.32;;;;;;;;;;5068439;28;20071;-77
2021/07/07 04:08:47;;;;;;;13.38;4.63;;;;;;;;;;5051487;28;20052;-77
2021/07/07 04:11:13;;;;;;;13.43;4.82;;;;;;;;;;5064772;28;20223;-77
2021/07/07 04:13:39;;;;;;;8.43;4.60;;;;;;;;;;5065219;28;20045;-77
2021/07/07 04:16:06;;;;;;;12.27;4.65;;;;;;;;;;5062548;28;20037;-79
2021/07/07 04:18:32;;;;;;;11.02;4.22;;;;;;;;;;5062374;28;20091;-77
2021/07/07 04:20:58;;;;;;;12.93;5.07;;;;;;;;;;5063992;28;20094;-77
2021/07/07 04:23:24;;;;;;;9.00;4.15;;;;;;;;;;5067281;28;20060;-77
2021/07/07 04:25:51;;;;;;;14.93;5.45;;;;;;;;;;5069002;28;20032;-77
2021/07/07 04:28:17;;;;;;;12.55;4.93;;;;;;;;;;5068582;28;20059;-77
2021/07/07 04:30:43;;;;;;;16.25;4.60;;;;;;;;;;5068038;28;20082;-77
2021/07/07 04:33:12;;;;;;;14.20;5.07;;;;;;;;;;5045903;28;20055;-77
2021/07/07 04:35:38;;;;;;;10.95;4.63;;;;;;;;;;5060867;28;20060;-77
2021/07/07 04:38:04;;;;;;;12.38;4.32;;;;;;;;;;5064209;28;20055;-77
2021/07/07 04:40:31;;;;;;;15.50;5.35;;;;;;;;;;5062996;28;20064;-77
2021/07/07 04:42:57;;;;;;;15.43;4.90;;;;;;;;;;5064699;28;20051;-77
2021/07/07 04:45:24;;;;;;;11.13;5.03;;;;;;;;;;5048149;28;20055;-77
2021/07/07 04:47:50;;;;;;;8.85;4.80;;;;;;;;;;5048034;28;20032;-77
2021/07/07 04:50:17;;;;;;;14.93;4.75;;;;;;;;;;5064711;28;20484;-77
2021/07/07 04:52:44;;;;;;;12.45;5.50;;;;;;;;;;5070481;28;20044;-77
2021/07/07 04:55:12;;;;;;;14.25;4.95;;;;;;;;;;5064904;28;20109;-77
2021/07/07 04:57:41;;;;;;;12.05;4.60;;;;;;;;;;5065234;28;20078;-77
2021/07/07 05:00:09;;;;;;;14.88;5.88;;;;;;;;;;5065918;28;20102;-77
2021/07/07 05:02:35;;;;;;;16.60;4.97;;;;;;;;;;5050144;28;20040;-77
2021/07/07 05:05:01;;;;;;;9.60;4.55;;;;;;;;;;5065162;28;20084;-77
2021/07/07 05:07:28;;;;;;;16.80;4.70;;;;;;;;;;5064597;28;20124;-77
2021/07/07 05:09:54;;;;;;;12.90;5.65;;;;;;;;;;5068393;28;20079;-77
2021/07/07 05:12:20;;;;;;;12.80;5.00;;;;;;;;;;5070699;28;20040;-77
2021/07/07 05:14:46;;;;;;;11.75;4.68;;;;;;;;;;5064863;28;20126;-77
2021/07/07 05:17:13;;;;;;;10.50;4.18;;;;;;;;;;5069633;28;20456;-77
2021/07/07 05:19:39;;;;;;;15.18;5.65;;;;;;;;;;5065845;28;20108;-75
2021/07/07 05:22:06;;;;;;;10.88;5.32;;;;;;;;;;5042491;28;20040;-77
2021/07/07 05:24:32;;;;;;;10.90;4.93;;;;;;;;;;5061781;28;20048;-77
2021/07/07 05:27:00;;;;;;;16.33;5.82;;;;;;;;;;5055706;28;20150;-77
2021/07/07 05:29:27;;;;;;;24.75;5.00;;;;;;;;;;5060363;28;20151;-77
2021/07/07 05:31:54;;;;;;;12.18;5.70;;;;;;;;;;5059855;28;20064;-77
2021/07/07 05:34:21;;;;;;;12.02;5.18;;;;;;;;;;5064446;28;20675;-77
2021/07/07 05:36:47;;;;;;;12.50;5.45;;;;;;;;;;5059501;28;20091;-78
2021/07/07 05:39:13;;;;;;;9.95;4.85;;;;;;;;;;5066316;28;20048;-78
2021/07/07 05:41:40;;;;;;;9.60;4.70;;;;;;;;;;5060773;28;20481;-78
2021/07/07 05:44:06;;;;;;;10.98;4.63;;;;;;;;;;5067662;28;20127;-78
2021/07/07 05:46:32;;;;;;;18.63;5.85;;;;;;;;;;5067582;28;20435;-75
2021/07/07 05:48:59;;;;;;;9.23;5.07;;;;;;;;;;5045163;28;20063;-76
2021/07/07 05:51:25;;;;;;;12.45;4.93;;;;;;;;;;5059320;28;20048;-77
2021/07/07 05:53:51;;;;;;;9.93;4.68;;;;;;;;;;5063427;28;20052;-77
2021/07/07 05:56:17;;;;;;;9.95;4.30;;;;;;;;;;5056534;28;20523;-78
2021/07/07 05:58:46;;;;;;;15.57;4.90;;;;;;;;;;5056202;28;20044;-78
2021/07/07 06:01:12;;;;;;;9.80;4.00;;;;;;;;;;5051935;28;20124;-78
2021/07/07 06:03:39;;;;;;;13.07;5.00;;;;;;;;;;5056817;28;20050;-79
2021/07/07 06:06:05;;;;;;;11.20;4.57;;;;;;;;;;5063275;28;20055;-78
2021/07/07 06:08:32;;;;;;;14.13;4.30;;;;;;;;;;5068742;28;20101;-76
2021/07/07 06:10:58;;;;;;;8.85;3.78;;;;;;;;;;5064664;28;20033;-76
2021/07/07 06:13:24;;;;;;;7.95;4.10;;;;;;;;;;5064804;28;20326;-75
2021/07/07 06:15:50;;;;;;;9.88;4.45;;;;;;;;;;5062270;28;20048;-76
2021/07/07 06:18:18;;;;;;;9.48;4.10;;;;;;;;;;5058258;28;20068;-76
2021/07/07 06:20:44;;;;;;;11.13;3.70;;;;;;;;;;5062209;28;20060;-77
2021/07/07 06:23:11;;;;;;;10.40;3.90;;;;;;;;;;5059657;28;20105;-76
2021/07/07 06:25:37;;;;;;;12.35;3.95;;;;;;;;;;5059769;28;20103;-77
2021/07/07 06:28:04;;;;;;;13.10;4.22;;;;;;;;;;5061488;28;20121;-79
2021/07/07 06:30:31;;;;;;;11.15;3.58;;;;;;;;;;5061556;28;20146;-79
2021/07/07 06:32:58;;;;;;;9.05;3.50;;;;;;;;;;5061272;28;20052;-78
2021/07/07 06:35:25;;;;;;;12.23;3.83;;;;;;;;;;5061678;28;20084;-79
2021/07/07 06:37:53;;;;;;;18.70;4.70;;;;;;;;;;5066912;28;20041;-79
2021/07/07 06:40:20;;;;;;;10.73;4.60;;;;;;;;;;5065486;28;20109;-79
2021/07/07 06:42:47;;;;;;;11.35;4.35;;;;;;;;;;5048058;28;20045;-79
2021/07/07 06:45:13;;;;;;;10.15;3.58;;;;;;;;;;5065612;28;20160;-79
2021/07/07 06:47:40;;;;;;;11.75;3.72;;;;;;;;;;5059182;28;20408;-79
2021/07/07 06:50:07;;;;;;;10.40;4.22;;;;;;;;;;5062113;28;20120;-79
2021/07/07 06:52:33;;;;;;;9.63;3.85;;;;;;;;;;5062685;28;20128;-79
2021/07/07 06:55:00;;;;;;;7.97;3.40;;;;;;;;;;5068890;28;20075;-79
2021/07/07 06:57:26;;;;;;;9.68;4.07;;;;;;;;;;5064036;28;20053;-79
2021/07/07 06:59:52;;;;;;;9.20;3.20;;;;;;;;;;5060761;28;20124;-79
2021/07/07 07:02:19;;;;;;;7.70;3.47;;;;;;;;;;5065087;28;20045;-81
2021/07/07 07:04:45;;;;;;;10.35;3.58;;;;;;;;;;5067238;28;20047;-80
2021/07/07 07:07:11;;;;;;;8.30;3.20;;;;;;;;;;5056318;28;20080;-81
2021/07/07 07:09:38;;;;;;;10.68;3.25;;;;;;;;;;5060736;28;20044;-80
2021/07/07 07:12:04;;;;;;;9.20;2.80;;;;;;;;;;5059366;28;20090;-80
2021/07/07 07:14:30;;;;;;;7.25;2.90;;;;;;;;;;5063502;28;20403;-80
2021/07/07 07:16:57;;;;;;;10.02;2.97;;;;;;;;;;5060757;28;20118;-81
2021/07/07 07:19:23;;;;;;;12.40;3.47;;;;;;;;;;5059305;28;20045;-81
2021/07/07 07:21:49;;;;;;;8.27;3.22;;;;;;;;;;5066149;28;20048;-80
2021/07/07 07:24:15;;;;;;;11.52;3.38;;;;;;;;;;5043273;28;20044;-80
2021/07/07 07:26:42;;;;;;;6.45;2.50;;;;;;;;;;5045053;28;20044;-80
2021/07/07 07:29:08;;;;;;;7.55;2.60;;;;;;;;;;5067958;28;20072;-79
2021/07/07 07:31:34;;;;;;;10.40;2.65;;;;;;;;;;5061781;28;20064;-80
2021/07/07 07:34:00;;;;;;;9.05;2.42;;;;;;;;;;5057760;28;20045;-79
2021/07/07 07:36:27;;;;;;;7.97;2.25;;;;;;;;;;5057769;28;20980;-80
2021/07/07 07:39:04;;;;;;;9.10;3.50;;;;;;;;;;5063761;28;20054;-80
2021/07/07 07:41:31;;;;;;;9.00;2.70;;;;;;;;;;5055638;28;20102;-80
2021/07/07 07:43:58;;;;;;;15.45;3.10;;;;;;;;;;5066695;28;20040;-80
2021/07/07 07:46:26;;;;;;;7.70;2.83;;;;;;;;;;5058201;28;20408;-80
2021/07/07 07:48:54;;;;;;;10.13;2.90;;;;;;;;;;5063043;28;20048;-80
2021/07/07 07:51:20;;;;;;;5.10;2.22;;;;;;;;;;5059328;28;20045;-80
2021/07/07 07:53:48;;;;;;;6.78;2.25;;;;;;;;;;5064563;28;20124;-79
2021/07/07 07:56:17;;;;;;;8.68;2.30;;;;;;;;;;5054905;28;20076;-80
2021/07/07 07:58:44;;;;;;;8.10;2.95;;;;;;;;;;5058202;28;20049;-79
2021/07/07 08:01:10;;;;;;;9.07;2.83;;;;;;;;;;5060551;28;20068;-80
2021/07/07 08:03:36;;;;;;;7.95;2.25;;;;;;;;;;5042386;28;20051;-80
2021/07/07 08:06:03;;;;;;;8.57;2.38;;;;;;;;;;5045153;28;20075;-80
2021/07/07 08:08:29;;;;;;;7.55;2.17;;;;;;;;;;5060683;28;20404;-80
2021/07/07 08:10:55;;;;;;;6.22;2.67;;;;;;;;;;5047657;28;20044;-80
2021/07/07 08:13:22;;;;;;;8.93;2.20;;;;;;;;;;5062931;28;20045;-80
2021/07/07 08:15:48;;;;;;;5.93;2.08;;;;;;;;;;5059571;28;20056;-80
2021/07/07 08:18:14;;;;;;;10.43;2.58;;;;;;;;;;5042080;28;20048;-80
2021/07/07 08:20:40;;;;;;;11.38;3.38;;;;;;;;;;5062524;28;20120;-80
2021/07/07 08:23:07;;;;;;;10.63;2.47;;;;;;;;;;5062512;28;20041;-80
2021/07/07 08:25:33;;;;;;;8.73;2.17;;;;;;;;;;5060397;28;20075;-78
2021/07/07 08:27:59;;;;;;;7.78;2.38;;;;;;;;;;5060636;28;20411;-80
2021/07/07 08:30:25;;;;;;;6.93;2.60;;;;;;;;;;5060875;28;20041;-80
2021/07/07 08:32:52;;;;;;;12.60;2.70;;;;;;;;;;5061955;28;20048;-80
2021/07/07 08:35:18;;;;;;;8.90;2.45;;;;;;;;;;5065527;28;20075;-80
2021/07/07 08:37:45;;;;;;;9.13;2.70;;;;;;;;;;5064203;28;20279;-80
2021/07/07 08:40:12;;;;;;;11.45;3.17;;;;;;;;;;5063933;28;20063;-80
2021/07/07 08:42:42;;;;;;;8.30;2.30;;;;;;;;;;5064015;28;20106;-80
2021/07/07 08:45:09;;;;;;;5.45;2.40;;;;;;;;;;5064896;28;20103;-80
2021/07/07 08:47:37;;;;;;;9.70;3.22;;;;;;;;;;5063348;28;20052;-80
2021/07/07 08:50:05;;;;;;;7.50;2.72;;;;;;;;;;5057314;28;20033;-80
2021/07/07 08:52:32;;;;;;;7.68;2.28;;;;;;;;;;5066337;28;20488;-80
2021/07/07 08:54:58;;;;;;;7.50;2.30;;;;;;;;;;5072713;28;20161;-79
2021/07/07 08:57:29;;;;;;;8.85;3.00;;;;;;;;;;5072934;28;20040;-79
2021/07/07 08:59:55;;;;;;;7.57;2.10;;;;;;;;;;5072174;28;20097;-80
2021/07/07 09:02:23;;;;;;;6.90;2.72;;;;;;;;;;5073235;28;20071;-79
2021/07/07 09:04:50;;;;;;;7.90;2.65;;;;;;;;;;5072702;28;20044;-79
2021/07/07 09:07:23;;;;;;;9.30;2.70;;;;;;;;;;5050967;28;20405;-80
2021/07/07 09:09:52;;;;;;;12.07;3.67;;;;;;;;;;5070961;28;20119;-79
2021/07/07 09:12:38;;;;;;;9.63;2.97;;;;;;;;;;5057149;28;20049;-79
2021/07/07 09:15:12;;;;;;;7.03;2.65;;;;;;;;;;5072209;28;20170;-79
2021/07/07 09:17:48;;;;;;;7.18;2.45;;;;;;;;;;5072589;28;20044;-79
2021/07/07 09:20:15;;;;;;;8.80;2.50;;;;;;;;;;5071453;28;20635;-79
2021/07/07 09:22:41;;;;;;;6.50;2.25;;;;;;;;;;5072561;28;20044;-79
2021/07/07 09:25:28;;;;;;;8.83;2.33;;;;;;;;;;5072299;28;20051;-79
2021/07/07 09:27:56;;;;;;;11.65;3.90;;;;;;;;;;5071559;28;20388;-80
2021/07/07 09:30:32;;;;;;;7.78;2.92;;;;;;;;;;5072199;28;20044;-79
2021/07/07 09:33:19;;;;;;;7.53;2.70;;;;;;;;;;5057115;28;20097;-79
2021/07/07 09:35:46;;;;;;;8.02;3.10;;;;;;;;;;5071184;28;20062;-79
2021/07/07 09:38:13;;;;;;;9.00;3.13;;;;;;;;;;5069724;28;20101;-80
2021/07/07 09:40:42;;;;;;;10.07;3.08;;;;;;;;;;5069121;28;20048;-79
2021/07/07 09:43:30;;;;;;;7.38;3.25;;;;;;;;;;5057370;28;20138;-80
2021/07/07 09:46:03;;;;;;;8.60;2.90;;;;;;;;;;5072398;28;20552;-79
2021/07/07 09:48:29;;;;;;;7.22;2.75;;;;;;;;;;5071619;28;20418;-79
2021/07/07 09:50:56;;;;;;;9.85;2.92;;;;;;;;;;5072216;28;20406;-80
2021/07/07 09:53:26;;;;;;;9.18;2.25;;;;;;;;;;5054063;28;20128;-79
2021/07/07 09:55:53;;;;;;;7.95;3.08;;;;;;;;;;5071341;28;20068;-77
2021/07/07 09:58:19;;;;;;;6.78;2.33;;;;;;;;;;5071804;28;20506;-80
2021/07/07 10:00:45;;;;;;;8.93;2.75;;;;;;;;;;5053017;28;20132;-79
2021/07/07 10:03:32;;;;;;;10.43;2.65;;;;;;;;;;5055681;28;20041;-80
2021/07/07 10:06:21;;;;;;;9.45;2.33;;;;;;;;;;5056894;28;20049;-80
2021/07/07 10:09:07;;;;;;;11.60;3.08;;;;;;;;;;5056245;28;20131;-79
2021/07/07 10:11:34;;;;;;;7.70;3.05;;;;;;;;;;5071700;28;20047;-80
2021/07/07 10:14:00;;;;;;;8.57;2.80;;;;;;;;;;5071897;28;20051;-80
2021/07/07 10:16:33;;;;;;;7.83;2.23;;;;;;;;;;5070911;28;20048;-79
2021/07/07 10:19:19;;;;;;;7.30;3.10;;;;;;;;;;5042947;28;20135;-79
2021/07/07 10:21:46;;;;;;;8.10;3.35;;;;;;;;;;5071606;28;20071;-80
2021/07/07 10:24:13;;;;;;;13.15;3.35;;;;;;;;;;5070777;28;20506;-80
2021/07/07 10:26:40;;;;;;;8.27;3.30;;;;;;;;;;5071472;28;20413;-79
2021/07/07 10:29:07;;;;;;;7.40;2.40;;;;;;;;;;5071428;28;20032;-80
2021/07/07 10:31:46;;;;;;;5.93;1.92;;;;;;;;;;5070440;28;20056;-79
2021/07/07 10:34:13;;;;;;;7.93;2.50;;;;;;;;;;5071188;28;20048;-80
2021/07/07 10:36:40;;;;;;;9.25;2.90;;;;;;;;;;5071230;28;20086;-79
2021/07/07 10:39:07;;;;;;;9.23;2.40;;;;;;;;;;5052579;28;20044;-80
2021/07/07 10:41:43;;;;;;;7.35;2.58;;;;;;;;;;5071056;28;20063;-79
2021/07/07 10:44:11;;;;;;;7.38;2.63;;;;;;;;;;5052350;28;20049;-79
2021/07/07 10:46:51;;;;;;;10.77;2.78;;;;;;;;;;5057085;28;20044;-79
2021/07/07 10:49:22;;;;;;;7.70;2.40;;;;;;;;;;5070950;28;20190;-79
2021/07/07 10:51:49;;;;;;;6.90;2.78;;;;;;;;;;5070447;28;20047;-79
2021/07/07 10:54:26;;;;;;;8.88;3.22;;;;;;;;;;5070220;28;20165;-79
2021/07/07 10:56:53;;;;;;;9.38;2.78;;;;;;;;;;5057125;28;20056;-79
2021/07/07 10:59:32;;;;;;;6.53;2.47;;;;;;;;;;5070614;28;20041;-79
2021/07/07 11:02:18;;;;;;;9.73;2.50;;;;;;;;;;5057138;28;20459;-79
2021/07/07 11:04:46;;;;;;;9.70;2.90;;;;;;;;;;5070842;28;20132;-80
2021/07/07 11:07:31;;;;;;;8.35;2.42;;;;;;;;;;5070084;28;20044;-79
2021/07/07 11:09:58;;;;;;;9.13;2.65;;;;;;;;;;5070606;28;20142;-79
2021/07/07 11:12:26;;;;;;;6.25;2.65;;;;;;;;;;5069858;28;20040;-79
2021/07/07 11:15:01;;;;;;;4.90;2.20;;;;;;;;;;5070459;28;20056;-80
2021/07/07 11:17:31;;;;;;;6.57;2.33;;;;;;;;;;5070664;28;20055;-80
2021/07/07 11:20:01;;;;;;;9.65;2.35;;;;;;;;;;5069731;28;20063;-79
2021/07/07 11:22:27;;;;;;;7.78;3.00;;;;;;;;;;5070889;28;20040;-80
2021/07/07 11:24:55;;;;;;;6.72;2.90;;;;;;;;;;5070622;28;20102;-80
2021/07/07 11:27:22;;;;;;;8.63;2.90;;;;;;;;;;5069262;28;20468;-80
2021/07/07 11:29:48;;;;;;;5.80;2.33;;;;;;;;;;5070256;28;20146;-79
2021/07/07 11:32:27;;;;;;;6.78;2.05;;;;;;;;;;5069855;28;20045;-72
2021/07/07 11:34:54;;;;;;;4.35;2.08;;;;;;;;;;5069542;28;20197;-72
2021/07/07 11:37:21;;;;;;;7.53;2.45;;;;;;;;;;5070064;28;20168;-71
2021/07/07 11:40:00;;;;;;;5.45;2.33;;;;;;;;;;5070456;28;20123;-71
2021/07/07 11:42:26;;;;;;;8.10;2.63;;;;;;;;;;5069467;28;20051;-72
2021/07/07 11:44:53;;;;;;;8.52;2.50;;;;;;;;;;5069898;28;20033;-72
2021/07/07 11:47:29;;;;;;;8.82;3.00;;;;;;;;;;5070438;28;20109;-71
2021/07/07 11:50:03;;;;;;;8.93;3.10;;;;;;;;;;5069706;28;20373;-72
2021/07/07 11:52:30;;;;;;;4.50;2.63;;;;;;;;;;5070192;28;20040;-72
2021/07/07 11:54:56;;;;;;;9.38;3.50;;;;;;;;;;5047688;28;20382;-72
2021/07/07 11:57:22;;;;;;;7.82;3.40;;;;;;;;;;5060477;28;20067;-71
2021/07/07 11:59:51;;;;;;;7.38;3.10;;;;;;;;;;5070075;28;20403;-72
2021/07/07 12:02:18;;;;;;;9.02;3.70;;;;;;;;;;5051403;28;20049;-72
2021/07/07 12:04:44;;;;;;;7.00;3.55;;;;;;;;;;5071915;28;20036;-72
2021/07/07 12:07:10;;;;;;;8.98;4.00;;;;;;;;;;5073945;28;20377;-72
2021/07/07 12:09:36;;;;;;;8.80;3.60;;;;;;;;;;5073223;28;20036;-71
2021/07/07 12:12:04;;;;;;;8.23;3.40;;;;;;;;;;5073783;28;20052;-72
2021/07/07 12:14:32;;;;;;;8.48;4.03;;;;;;;;;;5073908;28;20404;-71
2021/07/07 12:16:59;;;;;;;15.95;4.75;;;;;;;;;;5072872;28;20336;-71
2021/07/07 12:19:26;;;;;;;7.22;3.80;;;;;;;;;;5073868;28;20098;-72
2021/07/07 12:21:53;;;;;;;8.20;3.58;;;;;;;;;;5073672;28;20059;-72
2021/07/07 12:24:21;;;;;;;9.95;3.58;;;;;;;;;;5072992;28;20090;-72
2021/07/07 12:26:49;;;;;;;9.15;4.28;;;;;;;;;;5073633;28;20048;-72
2021/07/07 12:29:17;;;;;;;7.60;3.30;;;;;;;;;;5073649;28;20044;-72
2021/07/07 12:31:44;;;;;;;5.63;2.90;;;;;;;;;;5073025;28;20048;-72
2021/07/07 12:34:12;;;;;;;9.10;3.55;;;;;;;;;;5073069;28;20048;-72
2021/07/07 12:36:39;;;;;;;7.75;3.28;;;;;;;;;;5072593;28;20116;-72
2021/07/07 12:39:16;;;;;;;7.97;3.75;;;;;;;;;;5073014;28;20411;-71
2021/07/07 12:41:45;;;;;;;6.25;3.20;;;;;;;;;;5073484;28;20041;-71
2021/07/07 12:44:12;;;;;;;5.55;3.40;;;;;;;;;;5072141;28;20036;-72
2021/07/07 12:46:48;;;;;;;5.78;3.47;;;;;;;;;;5073224;28;20515;-72
2021/07/07 12:49:21;;;;;;;6.20;3.30;;;;;;;;;;5071930;28;20044;-72
2021/07/07 12:51:49;;;;;;;8.27;3.50;;;;;;;;;;5071400;28;20041;-72
2021/07/07 12:54:21;;;;;;;5.03;2.60;;;;;;;;;;5073152;28;20052;-72
2021/07/07 12:56:57;;;;;;;8.32;2.83;;;;;;;;;;5072721;28;20065;-72
2021/07/07 12:59:25;;;;;;;7.90;4.00;;;;;;;;;;5072509;28;20152;-72
2021/07/07 13:02:02;;;;;;;7.65;3.25;;;;;;;;;;5054613;28;20453;-72
2021/07/07 13:04:28;;;;;;;7.70;3.90;;;;;;;;;;5073131;28;20066;-72
2021/07/07 13:07:01;;;;;;;5.15;2.80;;;;;;;;;;5071818;28;20047;-76
2021/07/07 13:09:27;;;;;;;8.73;3.83;;;;;;;;;;5072879;28;20048;-76
2021/07/07 13:12:01;;;;;;;7.63;3.30;;;;;;;;;;5071761;28;20060;-76
2021/07/07 13:14:27;;;;;;;8.90;3.75;;;;;;;;;;5072850;28;20048;-75
2021/07/07 13:16:54;;;;;;;11.70;3.28;;;;;;;;;;5071935;28;20378;-76
2021/07/07 13:19:23;;;;;;;8.23;3.75;;;;;;;;;;5071778;28;20068;-75
2021/07/07 13:21:49;;;;;;;8.68;3.20;;;;;;;;;;5072540;28;20486;-76
2021/07/07 13:24:19;;;;;;;6.35;3.10;;;;;;;;;;5054717;28;20102;-76
2021/07/07 13:26:48;;;;;;;8.77;3.10;;;;;;;;;;5053369;28;20044;-76
2021/07/07 13:29:16;;;;;;;9.27;3.72;;;;;;;;;;5072639;28;20052;-75
2021/07/07 13:31:43;;;;;;;9.10;3.30;;;;;;;;;;5071156;28;20045;-76
2021/07/07 13:34:09;;;;;;;8.15;3.17;;;;;;;;;;5053541;28;20048;-75
2021/07/07 13:36:36;;;;;;;9.43;3.05;;;;;;;;;;5072325;28;20492;-76
2021/07/07 13:39:09;;;;;;;7.82;2.95;;;;;;;;;;5071992;28;20476;-76
2021/07/07 13:41:36;;;;;;;6.03;2.53;;;;;;;;;;5071318;28;20075;-75
2021/07/07 13:44:03;;;;;;;6.55;2.78;;;;;;;;;;5054263;28;20048;-76
2021/07/07 13:46:29;;;;;;;6.00;2.60;;;;;;;;;;5071880;28;20377;-76
2021/07/07 13:48:56;;;;;;;9.65;2.70;;;;;;;;;;5071401;28;20055;-75
2021/07/07 13:51:22;;;;;;;6.13;2.45;;;;;;;;;;5071823;28;20106;-75
2021/07/07 13:56:15;;;;;;;6.05;2.47;;;;;;;;;;5070679;28;20036;-76
2021/07/07 13:58:41;;;;;;;6.10;2.22;;;;;;;;;;5071763;28;20067;-75
2021/07/07 14:01:07;;;;;;;5.65;2.60;;;;;;;;;;5071273;28;20119;-76
2021/07/07 14:03:33;;;;;;;8.27;2.40;;;;;;;;;;5071580;28;20045;-75
2021/07/07 14:06:00;;;;;;;7.47;2.30;;;;;;;;;;5071782;28;20097;-76
2021/07/07 14:08:26;;;;;;;6.78;2.33;;;;;;;;;;5070695;28;20040;-76
2021/07/07 14:10:52;;;;;;;5.55;1.50;;;;;;;;;;5071932;28;20056;-76
2021/07/07 14:13:18;;;;;;;5.40;1.90;;;;;;;;;;5053271;28;20115;-76
2021/07/07 14:15:44;;;;;;;6.75;2.85;;;;;;;;;;5070848;28;20106;-76
2021/07/07 14:18:11;;;;;;;5.32;2.08;;;;;;;;;;5053485;28;20056;-75
2021/07/07 14:20:37;;;;;;;5.63;2.10;;;;;;;;;;5053476;28;20048;-76
2021/07/07 14:23:03;;;;;;;6.80;2.20;;;;;;;;;;5070784;28;20044;-76
2021/07/07 14:25:30;;;;;;;5.15;2.05;;;;;;;;;;5053427;28;20036;-75
2021/07/07 14:27:56;;;;;;;5.15;2.05;;;;;;;;;;5070171;28;20131;-76
2021/07/07 14:30:23;;;;;;;6.90;2.08;;;;;;;;;;5070479;28;20408;-76
2021/07/07 14:32:49;;;;;;;6.55;2.38;;;;;;;;;;5071039;28;20045;-76
2021/07/07 14:35:17;;;;;;;6.45;1.80;;;;;;;;;;5071162;28;20044;-76
2021/07/07 14:37:43;;;;;;;3.85;1.70;;;;;;;;;;5070491;28;20066;-76
2021/07/07 14:40:10;;;;;;;5.85;1.70;;;;;;;;;;5071031;28;20384;-76
2021/07/07 14:42:36;;;;;;;10.10;2.15;;;;;;;;;;5070711;28;20150;-76